Flight Track Log - Related Links

Times and Time Zones

All times are in EDT time to prevent confusion due to time zone crossing. See the LXJ541 flight status page for this flight to view local times or setup timezone preferences in your user account.

Time Position Orientation Groundspeed Altitude Reporting Facility
EDT Latitude Longitude Course Direction KTS MPH feet Rate Location/Type
Wed 07:04:50 PM 42.3667 -70.9833 90° East 176 203 800  Level KA90
Wed 07:05:44 PM 42.3667 -70.9167 90° East 238 274 4,000 3,035 Climbing KA90
Wed 07:06:15 PM 42.3792 -70.8717 69° East 273 314 5,100 2,308 Climbing Boston Center
Wed 07:07:15 PM 42.3861 -70.7706 85° East 283 326 7,500 2,000 Climbing Boston Center
Wed 07:08:15 PM 42.3103 -70.7275 157° South 217 250 9,100 2,050 Climbing Boston Center
Wed 07:09:15 PM 42.2636 -70.8131 234° Southwest 176 203 11,600 2,100 Climbing Boston Center
Wed 07:10:15 PM 42.2569 -70.9253 265° West 237 273 13,300 1,500 Climbing Boston Center
Wed 07:11:27 PM 42.2542 -71.0406 268° West 311 358 14,900 1,227 Climbing Boston Center
Wed 07:12:27 PM 42.2436 -71.2061 265° West 372 428 16,000 550 Climbing Boston Center
Wed 07:13:27 PM 42.2389 -71.3578 268° West 377 434 16,000  Level Boston Center
Wed 07:14:27 PM 42.2297 -71.4839 264° West 377 434 16,000  Level Boston Center
Wed 07:15:27 PM 42.2244 -71.6242 267° West 377 434 16,000  Level Boston Center
Wed 07:16:27 PM 42.2172 -71.7786 266° West 377 434 16,000 50 Level Boston Center
Wed 07:17:27 PM 42.2075 -71.9189 265° West 377 434 16,100  Climbing Boston Center
Wed 07:18:27 PM 42.2017 -72.0336 266° West 366 421 16,000 -45 Descending Boston Center
Wed 07:19:39 PM 42.1939 -72.1850 266° West 366 421 16,000  Level Boston Center
Wed 07:20:39 PM 42.1836 -72.3447 265° West 366 421 16,000  Level Boston Center
Wed 07:22:00 PM 42.1336 -72.4110 225° Southwest  Level Estimated
Wed 07:22:39 PM 42.1689 -72.6053 225° Southwest 361 415 16,000  Level Boston Center
Wed 07:23:39 PM 42.1603 -72.7397 265° West 361 415 16,000  Level Boston Center
Wed 07:24:39 PM 42.1536 -72.8686 266° West 361 415 16,000  Level Boston Center
Wed 07:25:39 PM 42.1447 -73.0000 265° West 356 410 16,000  Level Boston Center
Wed 07:26:39 PM 42.1358 -73.1175 264° West 348 400 16,000  Level Boston Center
Wed 07:27:39 PM 42.1267 -73.2547 265° West 348 400 16,000  Level Boston Center
Wed 07:28:39 PM 42.1172 -73.3889 265° West 348 400 16,000  Level Boston Center
Wed 07:29:39 PM 42.1078 -73.5175 264° West 348 400 16,000 -400 Level Boston Center
Wed 07:30:39 PM 42.0772 -73.6428 252° West 348 400 15,200 -900 Descending Boston Center
Wed 07:31:39 PM 42.0364 -73.7594 245° Southwest 348 400 14,200 -600 Descending Boston Center
Wed 07:32:39 PM 41.9953 -73.8731 244° Southwest 363 418 14,000 -800 Descending Boston Center
Wed 07:33:39 PM 41.9497 -74.0033 245° Southwest 363 418 12,600 -1,300 Descending Boston Center
Wed 07:34:39 PM 41.9086 -74.1250 246° West 358 412 11,400 -1,150 Descending Boston Center
Wed 07:35:39 PM 41.8672 -74.2297 242° Southwest 358 412 10,300 -700 Descending Boston Center
Wed 07:36:39 PM 41.7764 -74.3164 215° Southwest 363 418 10,000 -350 Descending Boston Center
Wed 07:37:39 PM 41.6939 -74.3778 209° Southwest 346 398 9,600 -900 Descending Boston Center
Wed 07:38:39 PM 41.6242 -74.4342 211° Southwest 313 360 8,200 -1,450 Descending Boston Center
Wed 07:39:39 PM 41.5567 -74.4847 209° Southwest 290 334 6,700 -1,100 Descending Boston Center
Wed 07:40:39 PM 41.4869 -74.5350 208° Southwest 285 328 6,000 -264 Descending Boston Center
Wed 07:42:18 PM 41.3667 -74.6000 202° Southwest 288 331 6,000 -113 Level New York TRACON
Wed 07:43:18 PM 41.2833 -74.6333 197° South 293 337 5,700 -700 Descending New York TRACON
Wed 07:44:18 PM 41.2167 -74.6167 169° South 275 316 4,600 -850 Descending New York TRACON
Wed 07:45:18 PM 41.1333 -74.6167 180° South 273 314 4,000 -300 Descending New York TRACON
Wed 07:46:18 PM 41.0667 -74.5833 159° South 283 326 4,000  Level New York TRACON
Wed 07:47:18 PM 41.0000 -74.5167 143° Southeast 286 329 4,000 -500 Level New York TRACON
Wed 07:48:18 PM 40.9333 -74.4667 150° Southeast 279 321 3,000 -500 Descending New York TRACON
Wed 07:49:18 PM 40.8667 -74.4167 150° Southeast 280 322 3,000  Level New York TRACON
Wed 07:50:18 PM 40.8000 -74.3833 159° South 230 265 3,000  Level New York TRACON
Wed 07:51:18 PM 40.7500 -74.3500 153° Southeast 200 230 3,000 -350 Level New York TRACON
Wed 07:52:18 PM 40.7000 -74.3333 166° South 211 243 2,300 -500 Descending New York TRACON
Wed 07:53:18 PM 40.7167 -74.2667 72° East 185 213 2,000 -400 Descending New York TRACON
Wed 07:54:18 PM 40.7500 -74.2167 49° Northeast 182 209 1,500 -250 Descending New York TRACON
Wed 07:55:18 PM 40.7833 -74.1667 49° Northeast 178 205 1,500 -238 Level New York TRACON
Wed 07:56:24 PM 40.8167 -74.1167 49° Northeast 168 193 1,000 -550 Descending New York TRACON
Wed 07:57:18 PM 40.8333 -74.0833 57° Northeast 123 142 400 -667 Descending New York TRACON
Wed 07:59:00 PM 40.8500 -74.0500 61° Northeast  Level FlightAware Approximate
Wed 08:06:00 PM 40.8501 -74.0608 61° Northeast  Level Estimated

Login

Don't have an account? Register now (free) for customized features, flight alerts, and more!